createdAt,value
2019-02-22T00:00:32.738Z,23.90
2019-02-22T00:03:03.368Z,22.17
2019-02-22T00:05:34.615Z,23.30
2019-02-22T00:08:05.306Z,22.03
2019-02-22T00:10:36.211Z,21.27
2019-02-22T00:13:06.860Z,22.83
2019-02-22T00:15:37.523Z,25.00
2019-02-22T00:18:08.108Z,22.27
2019-02-22T00:20:41.120Z,21.03
2019-02-22T00:23:11.018Z,21.80
2019-02-22T00:25:41.666Z,20.37
2019-02-22T00:28:12.244Z,20.47
2019-02-22T00:30:42.904Z,20.03
2019-02-22T00:33:13.631Z,20.97
2019-02-22T00:35:44.290Z,21.60
2019-02-22T00:38:14.928Z,21.97
2019-02-22T00:40:45.524Z,22.20
2019-02-22T00:43:16.155Z,20.07
2019-02-22T00:45:46.760Z,22.27
2019-02-22T00:48:17.367Z,21.00
2019-02-22T00:50:48.011Z,21.57
2019-02-22T00:53:18.668Z,20.87
2019-02-22T00:55:49.252Z,19.40
2019-02-22T00:58:19.992Z,20.43
2019-02-22T01:00:50.632Z,21.07
2019-02-22T01:03:21.231Z,21.33
2019-02-22T01:05:51.902Z,25.67
2019-02-22T01:08:22.520Z,24.20
2019-02-22T01:10:53.144Z,21.83
2019-02-22T01:13:23.796Z,20.83
2019-02-22T01:15:54.456Z,22.57
2019-02-22T01:18:25.133Z,22.27
2019-02-22T01:20:55.734Z,25.70
2019-02-22T01:23:26.354Z,23.70
2019-02-22T01:25:57.008Z,21.70
2019-02-22T01:28:27.696Z,19.87
2019-02-22T01:30:58.365Z,23.57
2019-02-22T01:33:28.968Z,19.07
2019-02-22T01:35:59.552Z,20.87
2019-02-22T01:38:30.487Z,19.33
2019-02-22T01:41:01.104Z,19.67
2019-02-22T01:43:33.504Z,19.50
2019-02-22T01:46:04.165Z,21.00
2019-02-22T01:48:34.804Z,18.73
2019-02-22T01:51:05.433Z,19.83
2019-02-22T01:53:36.072Z,20.40
2019-02-22T01:56:06.695Z,18.23
2019-02-22T01:58:47.990Z,21.47
2019-02-22T02:01:09.563Z,18.90
2019-02-22T02:03:40.186Z,18.83
2019-02-22T02:06:10.811Z,18.93
2019-02-22T02:08:41.474Z,17.40
2019-02-22T02:11:12.070Z,19.97
2019-02-22T02:13:42.683Z,19.30
2019-02-22T02:16:13.330Z,20.07
2019-02-22T02:18:43.919Z,21.20
2019-02-22T02:21:14.613Z,23.43
2019-02-22T02:23:45.412Z,20.73
2019-02-22T02:26:16.117Z,20.07
2019-02-22T02:28:46.870Z,20.30
2019-02-22T02:31:17.540Z,19.73
2019-02-22T02:33:48.156Z,19.97
2019-02-22T02:36:18.752Z,20.13
2019-02-22T02:38:49.359Z,20.53
2019-02-22T02:41:20.001Z,18.43
2019-02-22T02:43:50.631Z,18.33
2019-02-22T02:46:21.280Z,19.03
2019-02-22T02:48:51.901Z,19.67
2019-02-22T02:51:22.550Z,21.73
2019-02-22T02:53:53.246Z,18.47
2019-02-22T02:56:23.840Z,21.57
2019-02-22T02:58:54.464Z,18.27
2019-02-22T03:01:25.048Z,19.80
2019-02-22T03:03:55.673Z,17.03
2019-02-22T03:06:45.186Z,18.50
2019-02-22T03:09:16.118Z,19.30
2019-02-22T03:11:47.060Z,18.63
2019-02-22T03:14:17.690Z,18.40
2019-02-22T03:16:48.346Z,17.73
2019-02-22T03:19:19.000Z,16.87
2019-02-22T03:21:49.585Z,19.73
2019-02-22T03:24:21.110Z,17.97
2019-02-22T03:26:51.722Z,18.37
2019-02-22T03:29:22.311Z,21.80
2019-02-22T03:31:52.969Z,20.10
2019-02-22T03:34:23.626Z,22.70
2019-02-22T03:36:54.299Z,19.30
2019-02-22T03:39:25.172Z,21.27
2019-02-22T03:41:55.823Z,20.13
2019-02-22T03:44:26.494Z,20.70
2019-02-22T03:46:57.134Z,21.63
2019-02-22T03:49:27.787Z,19.27
2019-02-22T03:51:59.972Z,18.90
2019-02-22T03:54:31.324Z,18.57
2019-02-22T03:57:02.268Z,20.27
2019-02-22T03:59:32.913Z,19.30
2019-02-22T04:02:03.811Z,19.17
2019-02-22T04:04:34.588Z,21.53
2019-02-22T04:07:05.227Z,22.50
2019-02-22T04:09:35.859Z,19.77
2019-02-22T04:12:06.464Z,20.97
2019-02-22T04:14:37.122Z,22.87
2019-02-22T04:17:07.792Z,21.20
2019-02-22T04:19:38.422Z,21.53
2019-02-22T04:22:09.020Z,22.60
2019-02-22T04:24:39.647Z,21.10
2019-02-22T04:27:10.287Z,20.63
2019-02-22T04:29:40.908Z,22.00
2019-02-22T04:32:11.562Z,21.20
2019-02-22T04:34:42.150Z,23.83
2019-02-22T04:37:13.066Z,23.80
2019-02-22T04:39:43.966Z,24.67
2019-02-22T04:42:14.587Z,24.43
2019-02-22T04:44:45.242Z,25.73
2019-02-22T04:47:15.919Z,26.47
2019-02-22T04:49:46.537Z,24.63
2019-02-22T04:52:17.164Z,22.33
2019-02-22T04:54:47.823Z,23.20
2019-02-22T04:57:18.435Z,23.30
2019-02-22T04:59:49.064Z,24.07
2019-02-22T05:02:19.720Z,24.43
2019-02-22T05:04:50.380Z,25.77
2019-02-22T05:07:20.987Z,24.43
2019-02-22T05:09:51.858Z,24.03
2019-02-22T05:12:22.483Z,23.03
2019-02-22T05:14:53.160Z,23.57
2019-02-22T05:17:23.764Z,25.00
2019-02-22T05:19:54.379Z,23.70
2019-02-22T05:22:25.027Z,25.07
2019-02-22T05:24:55.646Z,24.17
2019-02-22T05:27:26.290Z,26.77
2019-02-22T05:29:56.922Z,24.80
2019-02-22T05:32:27.605Z,26.17
2019-02-22T05:34:58.203Z,24.03
2019-02-22T05:37:28.862Z,25.43
2019-02-22T05:39:59.471Z,23.33
2019-02-22T05:42:30.126Z,23.30
2019-02-22T05:45:00.708Z,25.03
2019-02-22T05:47:31.352Z,23.60
2019-02-22T05:50:01.992Z,24.60
2019-02-22T05:52:32.603Z,24.40
2019-02-22T05:55:03.213Z,25.67
2019-02-22T05:57:33.880Z,23.43
2019-02-22T06:00:04.494Z,24.10
2019-02-22T06:02:35.131Z,26.37
2019-02-22T06:05:06.008Z,29.77
2019-02-22T06:07:36.841Z,24.77
2019-02-22T06:10:08.177Z,22.37
2019-02-22T06:12:38.823Z,28.20
2019-02-22T06:15:09.557Z,26.70
2019-02-22T06:17:40.161Z,28.30
2019-02-22T06:20:10.814Z,23.13
2019-02-22T06:22:41.989Z,23.50
2019-02-22T06:25:14.618Z,24.87
2019-02-22T06:27:45.468Z,23.37
2019-02-22T06:30:16.060Z,22.50
2019-02-22T06:32:46.705Z,24.40
2019-02-22T06:35:18.968Z,24.00
2019-02-22T06:37:49.588Z,23.10
2019-02-22T06:40:20.185Z,24.60
2019-02-22T06:42:51.139Z,22.70
2019-02-22T06:45:21.988Z,24.40
2019-02-22T06:47:53.187Z,26.13
2019-02-22T06:50:33.302Z,23.97
2019-02-22T06:52:56.094Z,24.00
2019-02-22T06:55:26.879Z,24.27
2019-02-22T06:57:57.496Z,24.90
2019-02-22T07:00:28.165Z,23.63
2019-02-22T07:02:58.992Z,22.53
2019-02-22T07:05:29.643Z,22.30
2019-02-22T07:08:00.303Z,23.10
2019-02-22T07:10:32.514Z,22.03
2019-02-22T07:13:07.965Z,23.17
2019-02-22T07:15:38.674Z,22.90
2019-02-22T07:18:09.270Z,22.37
2019-02-22T07:20:39.897Z,21.97
2019-02-22T07:23:10.524Z,21.97
2019-02-22T07:25:41.155Z,22.77
2019-02-22T07:28:11.820Z,21.80
2019-02-22T07:30:42.795Z,23.10
2019-02-22T07:33:13.430Z,22.73
2019-02-22T07:35:44.094Z,23.27
2019-02-22T07:38:14.794Z,22.10
2019-02-22T07:40:45.442Z,23.00
2019-02-22T07:43:16.062Z,22.20
2019-02-22T07:45:46.797Z,23.27
2019-02-22T07:48:17.393Z,22.73
2019-02-22T07:50:56.935Z,23.40
2019-02-22T07:53:20.427Z,22.20
2019-02-22T07:55:51.073Z,21.63
2019-02-22T07:58:21.716Z,23.30
2019-02-22T08:00:52.347Z,22.30
2019-02-22T08:03:22.944Z,22.57
2019-02-22T08:05:53.582Z,23.13
2019-02-22T08:08:24.208Z,23.63
2019-02-22T08:10:55.038Z,22.77
2019-02-22T08:13:25.670Z,22.53
2019-02-22T08:15:56.366Z,21.30
2019-02-22T08:18:27.028Z,22.53
2019-02-22T08:20:57.659Z,23.60
2019-02-22T08:23:28.316Z,22.43
2019-02-22T08:25:58.998Z,22.57
2019-02-22T08:28:29.677Z,20.60
2019-02-22T08:31:00.402Z,21.87
2019-02-22T08:33:31.043Z,24.57
2019-02-22T08:36:01.708Z,20.60
2019-02-22T08:38:32.322Z,20.90
2019-02-22T08:41:02.932Z,21.93
2019-02-22T08:43:33.544Z,21.10
2019-02-22T08:46:04.194Z,20.77
2019-02-22T08:48:34.854Z,19.83
2019-02-22T08:51:05.511Z,16.47
2019-02-22T08:53:36.181Z,17.10
2019-02-22T08:56:06.764Z,17.20
2019-02-22T08:58:37.437Z,15.97
2019-02-22T09:01:08.053Z,16.00
2019-02-22T09:03:49.446Z,16.87
2019-02-22T09:06:10.927Z,16.90
2019-02-22T09:08:41.536Z,17.30
2019-02-22T09:11:12.165Z,19.10
2019-02-22T09:13:43.896Z,20.67
2019-02-22T09:16:14.892Z,20.07
2019-02-22T09:18:45.540Z,16.20
2019-02-22T09:21:16.185Z,19.20
2019-02-22T09:23:46.830Z,19.27
2019-02-22T09:26:17.880Z,19.07
2019-02-22T09:28:48.510Z,20.40
2019-02-22T09:31:19.108Z,19.20
2019-02-22T09:33:49.782Z,18.80
2019-02-22T09:36:20.524Z,21.30
2019-02-22T09:38:51.167Z,20.33
2019-02-22T09:41:21.751Z,21.23
2019-02-22T09:43:55.569Z,22.00
2019-02-22T09:46:24.666Z,20.90
2019-02-22T09:48:55.336Z,18.97
2019-02-22T09:51:25.995Z,18.63
2019-02-22T09:53:56.635Z,20.13
2019-02-22T09:56:27.264Z,21.73
2019-02-22T09:58:57.908Z,19.20
2019-02-22T10:01:28.544Z,20.67
2019-02-22T10:03:59.335Z,18.80
2019-02-22T10:06:29.974Z,19.40
2019-02-22T10:09:00.718Z,18.10
2019-02-22T10:11:31.348Z,18.93
2019-02-22T10:14:06.617Z,19.67
2019-02-22T10:16:34.238Z,20.83
2019-02-22T10:19:04.873Z,20.47
2019-02-22T10:21:36.155Z,22.17
2019-02-22T10:24:06.786Z,18.27
2019-02-22T10:26:37.440Z,19.80
2019-02-22T10:29:08.290Z,20.40
2019-02-22T10:31:38.890Z,22.03
2019-02-22T10:34:09.540Z,20.43
2019-02-22T10:36:45.156Z,22.53
2019-02-22T10:39:12.423Z,19.00
2019-02-22T10:41:43.030Z,19.87
2019-02-22T10:44:17.860Z,20.80
2019-02-22T10:46:45.909Z,19.63
2019-02-22T10:49:16.516Z,21.33
2019-02-22T10:51:47.162Z,20.07
2019-02-22T10:54:18.744Z,22.50
2019-02-22T10:56:49.458Z,21.97
2019-02-22T10:59:20.079Z,19.60
2019-02-22T11:01:51.271Z,23.10
2019-02-22T11:04:21.877Z,22.30
2019-02-22T11:06:52.471Z,19.50
2019-02-22T11:09:23.509Z,21.80
2019-02-22T11:11:54.540Z,22.20
2019-02-22T11:14:29.198Z,21.00
2019-02-22T11:16:57.395Z,18.60
2019-02-22T11:19:28.056Z,21.63
2019-02-22T11:21:58.687Z,17.37
2019-02-22T11:24:29.291Z,18.40
2019-02-22T11:26:59.945Z,15.23
2019-02-22T11:29:30.532Z,18.00
2019-02-22T11:32:01.133Z,18.03
2019-02-22T11:34:31.788Z,17.90
2019-02-22T11:37:02.452Z,19.37
2019-02-22T11:39:33.066Z,20.60
2019-02-22T11:42:03.712Z,19.43
2019-02-22T11:44:40.102Z,19.80
2019-02-22T11:47:06.552Z,18.87
2019-02-22T11:49:37.278Z,18.97
2019-02-22T11:52:07.932Z,19.67
2019-02-22T11:54:38.912Z,14.40
2019-02-22T11:57:10.031Z,15.80
2019-02-22T11:59:40.713Z,14.67
2019-02-22T12:02:11.296Z,15.68
2019-02-22T12:04:41.888Z,16.30
2019-02-22T12:07:12.507Z,17.23
2019-02-22T12:09:43.442Z,17.03
2019-02-22T12:12:14.049Z,17.10
2019-02-22T12:14:51.567Z,16.30
2019-02-22T12:17:16.934Z,12.90
2019-02-22T12:19:47.555Z,13.87
2019-02-22T12:22:18.528Z,13.13
2019-02-22T12:24:49.193Z,11.93
2019-02-22T12:27:19.776Z,15.20
2019-02-22T12:29:50.699Z,13.13
2019-02-22T12:32:21.308Z,13.73
2019-02-22T12:34:52.046Z,14.27
2019-02-22T12:37:24.775Z,16.00
2019-02-22T12:39:55.481Z,16.90
2019-02-22T12:42:26.303Z,15.00
2019-02-22T12:45:02.846Z,14.60
2019-02-22T12:47:29.183Z,13.78
2019-02-22T12:49:59.837Z,15.23
2019-02-22T12:52:30.486Z,12.53
2019-02-22T12:55:01.422Z,16.48
2019-02-22T12:57:32.423Z,18.13
2019-02-22T13:00:03.012Z,15.37
2019-02-22T13:02:33.948Z,13.40
2019-02-22T13:05:04.651Z,13.40
2019-02-22T13:07:35.357Z,14.67
2019-02-22T13:10:06.224Z,13.77
2019-02-22T13:12:37.026Z,14.47
2019-02-22T13:15:13.992Z,11.27
2019-02-22T13:17:41.713Z,13.40
2019-02-22T13:20:12.452Z,12.57
2019-02-22T13:22:43.055Z,10.83
2019-02-22T13:25:13.644Z,10.80
2019-02-22T13:27:44.278Z,8.90
2019-02-22T13:30:14.991Z,10.23
2019-02-22T13:32:45.677Z,10.30
2019-02-22T13:35:16.294Z,9.57
2019-02-22T13:37:47.215Z,9.43
2019-02-22T13:40:18.064Z,8.23
2019-02-22T13:42:48.693Z,8.53
2019-02-22T13:45:26.752Z,7.30
2019-02-22T13:47:51.626Z,6.23
2019-02-22T13:50:22.240Z,6.87
2019-02-22T13:52:52.857Z,8.63
2019-02-22T13:55:23.869Z,6.80
2019-02-22T13:57:54.493Z,7.63
2019-02-22T14:00:25.158Z,8.43
2019-02-22T14:02:55.784Z,8.10
2019-02-22T14:05:26.419Z,6.50
2019-02-22T14:07:57.388Z,6.97
2019-02-22T14:10:28.034Z,6.73
2019-02-22T14:12:58.628Z,6.13
2019-02-22T14:15:37.497Z,6.20
2019-02-22T14:18:01.588Z,6.13
2019-02-22T14:20:32.228Z,6.60
2019-02-22T14:23:03.809Z,10.27
2019-02-22T14:25:34.576Z,8.77
2019-02-22T14:28:05.175Z,7.03
2019-02-22T14:30:35.855Z,9.03
2019-02-22T14:33:06.468Z,10.00
2019-02-22T14:35:37.391Z,9.47
2019-02-22T14:38:08.467Z,9.20
2019-02-22T14:40:39.144Z,10.83
2019-02-22T14:43:16.543Z,8.77
2019-02-22T14:45:49.641Z,9.50
2019-02-22T14:48:14.313Z,8.60
2019-02-22T14:50:44.935Z,10.03
2019-02-22T14:53:19.443Z,8.43
2019-02-22T14:55:48.104Z,6.50
2019-02-22T14:58:18.757Z,8.57
2019-02-22T15:00:49.399Z,9.73
2019-02-22T15:03:20.323Z,8.87
2019-02-22T15:05:50.927Z,9.77
2019-02-22T15:08:21.848Z,9.70
2019-02-22T15:10:52.458Z,10.67
2019-02-22T15:13:23.047Z,9.37
2019-02-22T15:16:15.419Z,8.90
2019-02-22T15:18:46.079Z,10.43
2019-02-22T15:21:17.474Z,10.13
2019-02-22T15:23:48.063Z,9.67
2019-02-22T15:26:18.710Z,8.30
2019-02-22T15:28:49.344Z,9.00
2019-02-22T15:31:20.065Z,8.57
2019-02-22T15:33:50.707Z,9.13
2019-02-22T15:36:21.297Z,8.60
2019-02-22T15:38:51.934Z,8.30
2019-02-22T15:41:22.540Z,7.93
2019-02-22T15:43:53.299Z,9.73
2019-02-22T15:46:23.921Z,9.50
2019-02-22T15:48:55.001Z,9.07
2019-02-22T15:51:25.634Z,9.77
2019-02-22T15:53:56.671Z,8.83
2019-02-22T15:56:28.015Z,9.50
2019-02-22T15:58:59.534Z,10.00
2019-02-22T16:01:30.268Z,9.73
2019-02-22T16:04:12.333Z,9.87
2019-02-22T16:06:42.968Z,12.93
2019-02-22T16:09:13.696Z,12.73
2019-02-22T16:11:44.386Z,11.73
2019-02-22T16:14:15.077Z,12.43
2019-02-22T16:16:45.883Z,9.60
2019-02-22T16:19:16.744Z,11.57
2019-02-22T16:21:47.791Z,11.70
2019-02-22T16:24:18.750Z,10.57
2019-02-22T16:26:50.987Z,12.50
2019-02-22T16:29:21.596Z,9.37
2019-02-22T16:31:52.286Z,11.30
2019-02-22T16:34:23.172Z,9.83
2019-02-22T16:36:54.620Z,11.40
2019-02-22T16:39:25.725Z,9.57
2019-02-22T16:41:56.410Z,10.10
2019-02-22T16:44:27.719Z,9.87
2019-02-22T16:46:58.460Z,9.97
2019-02-22T16:49:29.683Z,10.73
2019-02-22T16:52:00.334Z,9.37
2019-02-22T16:54:31.323Z,9.40
2019-02-22T16:57:02.062Z,7.50
2019-02-22T16:59:32.960Z,9.43
2019-02-22T17:02:03.763Z,8.87
2019-02-22T17:04:34.366Z,9.00
2019-02-22T17:07:05.033Z,7.80
2019-02-22T17:09:35.672Z,7.13
2019-02-22T17:12:06.951Z,8.33
2019-02-22T17:14:39.886Z,6.83
2019-02-22T17:17:11.147Z,7.70
2019-02-22T17:19:42.143Z,5.47
2019-02-22T17:22:12.769Z,5.70
2019-02-22T17:24:43.380Z,6.63
2019-02-22T17:27:14.657Z,5.93
2019-02-22T17:29:45.598Z,7.33
2019-02-22T17:32:16.156Z,6.83
2019-02-22T17:34:46.808Z,6.23
2019-02-22T17:37:17.876Z,6.50
2019-02-22T17:39:48.622Z,8.37
2019-02-22T17:42:19.280Z,8.47
2019-02-22T17:44:50.196Z,7.87
2019-02-22T17:47:20.815Z,7.40
2019-02-22T17:49:51.416Z,6.73
2019-02-22T17:52:22.057Z,6.17
2019-02-22T17:54:52.696Z,7.60
2019-02-22T17:57:23.343Z,8.07
2019-02-22T17:59:54.294Z,8.90
2019-02-22T18:02:25.134Z,9.73
2019-02-22T18:04:55.769Z,9.23
2019-02-22T18:07:26.427Z,8.50
2019-02-22T18:09:57.048Z,7.07
2019-02-22T18:12:27.796Z,6.77
2019-02-22T18:14:58.621Z,6.00
2019-02-22T18:17:29.318Z,8.37
2019-02-22T18:20:00.240Z,7.90
2019-02-22T18:22:31.296Z,8.50
2019-02-22T18:25:02.119Z,7.00
2019-02-22T18:27:32.702Z,8.30
2019-02-22T18:30:03.406Z,11.77
2019-02-22T18:32:34.012Z,14.80
2019-02-22T18:35:04.856Z,10.00
2019-02-22T18:37:35.695Z,9.03
2019-02-22T18:40:08.825Z,11.70
2019-02-22T18:42:39.506Z,9.67
2019-02-22T18:45:10.159Z,11.40
2019-02-22T18:47:40.795Z,8.70
2019-02-22T18:50:11.549Z,9.70
2019-02-22T18:52:42.384Z,8.07
2019-02-22T18:55:13.002Z,8.93
2019-02-22T18:57:43.959Z,10.13
2019-02-22T19:00:15.288Z,10.43
2019-02-22T19:02:45.908Z,8.90
2019-02-22T19:05:16.526Z,9.73
2019-02-22T19:07:47.184Z,10.93
2019-02-22T19:10:17.888Z,9.73
2019-02-22T19:12:48.576Z,11.73
2019-02-22T19:15:19.238Z,9.70
2019-02-22T19:17:50.066Z,10.87
2019-02-22T19:20:20.758Z,9.80
2019-02-22T19:22:51.419Z,12.43
2019-02-22T19:25:22.087Z,10.00
2019-02-22T19:27:52.715Z,9.83
2019-02-22T19:30:23.455Z,11.47
2019-02-22T19:32:54.182Z,9.50
2019-02-22T19:35:24.946Z,10.83
2019-02-22T19:37:56.187Z,9.53
2019-02-22T19:40:27.170Z,10.40
2019-02-22T19:42:57.971Z,12.63
2019-02-22T19:45:29.002Z,9.60
2019-02-22T19:47:59.660Z,13.43
2019-02-22T19:50:40.767Z,11.50
2019-02-22T19:53:03.036Z,8.77
2019-02-22T19:55:33.769Z,11.83
2019-02-22T19:58:04.440Z,11.57
2019-02-22T20:00:35.110Z,9.70
2019-02-22T20:03:05.919Z,13.03
2019-02-22T20:05:36.550Z,11.80
2019-02-22T20:08:07.403Z,11.83
2019-02-22T20:10:38.400Z,13.73
2019-02-22T20:13:09.125Z,12.83
2019-02-22T20:15:39.831Z,12.50
2019-02-22T20:18:10.527Z,12.33
2019-02-22T20:20:41.560Z,10.73
2019-02-22T20:23:12.589Z,12.67
2019-02-22T20:25:44.907Z,9.97
2019-02-22T20:28:15.619Z,10.63
2019-02-22T20:30:46.278Z,10.63
2019-02-22T20:33:17.035Z,12.30
2019-02-22T20:35:47.686Z,10.57
2019-02-22T20:38:18.453Z,11.63
2019-02-22T20:40:49.091Z,10.60
2019-02-22T20:43:19.754Z,10.03
2019-02-22T20:45:50.402Z,10.20
2019-02-22T20:48:21.071Z,10.53
2019-02-22T20:50:51.665Z,12.57
2019-02-22T20:53:22.301Z,11.97
2019-02-22T20:55:53.102Z,11.30
2019-02-22T20:58:23.751Z,12.10
2019-02-22T21:00:54.395Z,10.57
2019-02-22T21:03:24.961Z,13.37
2019-02-22T21:05:56.335Z,13.23
2019-02-22T21:08:26.950Z,11.80
2019-02-22T21:10:57.599Z,13.73
2019-02-22T21:13:28.354Z,14.60
2019-02-22T21:15:59.074Z,16.30
2019-02-22T21:18:29.694Z,16.30
2019-02-22T21:21:00.315Z,15.40
2019-02-22T21:23:31.067Z,18.80
2019-02-22T21:26:01.667Z,14.47
2019-02-22T21:28:32.494Z,11.60
2019-02-22T21:31:03.166Z,11.20
2019-02-22T21:33:33.763Z,11.47
2019-02-22T21:36:04.358Z,9.50
2019-02-22T21:38:34.959Z,9.80
2019-02-22T21:41:06.026Z,10.37
2019-02-22T21:43:36.710Z,9.17
2019-02-22T21:46:07.294Z,7.43
2019-02-22T21:48:38.295Z,8.17
2019-02-22T21:51:08.938Z,9.10
2019-02-22T21:53:39.588Z,6.67
2019-02-22T21:56:10.163Z,7.17
2019-02-22T21:58:40.804Z,6.50
2019-02-22T22:01:11.503Z,6.43
2019-02-22T22:03:42.145Z,6.40
2019-02-22T22:06:12.835Z,6.70
2019-02-22T22:08:43.764Z,6.87
2019-02-22T22:11:14.328Z,8.40
2019-02-22T22:13:44.951Z,7.03
2019-02-22T22:16:15.672Z,6.10
2019-02-22T22:18:46.356Z,6.77
2019-02-22T22:21:17.714Z,6.33
2019-02-22T22:23:48.280Z,6.20
2019-02-22T22:26:18.904Z,6.07
2019-02-22T22:28:49.496Z,6.23
2019-02-22T22:31:20.159Z,6.20
2019-02-22T22:33:50.842Z,6.40
2019-02-22T22:36:21.435Z,7.80
2019-02-22T22:38:54.817Z,6.90
2019-02-22T22:41:24.348Z,6.13
2019-02-22T22:43:55.060Z,5.90
2019-02-22T22:46:36.438Z,6.70
2019-02-22T22:48:58.035Z,5.77
2019-02-22T22:51:28.681Z,5.60
2019-02-22T22:53:59.338Z,5.87
2019-02-22T22:56:29.988Z,6.10
2019-02-22T22:59:00.606Z,5.77
2019-02-22T23:01:33.246Z,5.10
2019-02-22T23:04:03.873Z,6.00
2019-02-22T23:06:34.474Z,6.70
2019-02-22T23:09:08.026Z,6.30
2019-02-22T23:11:38.655Z,5.50
2019-02-22T23:14:09.297Z,5.80
2019-02-22T23:16:40.242Z,6.87
2019-02-22T23:19:10.908Z,5.53
2019-02-22T23:21:41.512Z,6.13
2019-02-22T23:24:12.099Z,6.13
2019-02-22T23:26:42.732Z,7.50
2019-02-22T23:29:13.351Z,6.30
2019-02-22T23:31:44.169Z,6.80
2019-02-22T23:34:15.107Z,6.17
2019-02-22T23:36:45.791Z,6.33
2019-02-22T23:39:16.367Z,6.97
2019-02-22T23:41:47.118Z,6.03
2019-02-22T23:44:18.031Z,6.33
2019-02-22T23:46:48.630Z,6.10
2019-02-22T23:49:19.291Z,6.60
2019-02-22T23:51:49.934Z,6.83
2019-02-22T23:54:20.510Z,6.80
2019-02-22T23:56:51.103Z,7.33
2019-02-22T23:59:21.730Z,6.80
